sensor_id;sensor_type;location;lat;lon;timestamp;temperature;humidity
68609;SHT31;55581;46.718;7.690;2024-03-06T00:01:31;2.60;92.17
68609;SHT31;55581;46.718;7.690;2024-03-06T00:03:56;2.54;91.78
68609;SHT31;55581;46.718;7.690;2024-03-06T00:06:22;2.60;93.08
68609;SHT31;55581;46.718;7.690;2024-03-06T00:08:47;2.61;92.11
68609;SHT31;55581;46.718;7.690;2024-03-06T00:11:12;2.60;91.20
68609;SHT31;55581;46.718;7.690;2024-03-06T00:13:38;2.56;91.41
68609;SHT31;55581;46.718;7.690;2024-03-06T00:16:03;2.56;91.38
68609;SHT31;55581;46.718;7.690;2024-03-06T00:18:31;2.62;92.29
68609;SHT31;55581;46.718;7.690;2024-03-06T00:20:57;2.62;91.95
68609;SHT31;55581;46.718;7.690;2024-03-06T00:23:22;2.68;92.42
68609;SHT31;55581;46.718;7.690;2024-03-06T00:25:50;2.58;91.20
68609;SHT31;55581;46.718;7.690;2024-03-06T00:28:15;2.34;91.75
68609;SHT31;55581;46.718;7.690;2024-03-06T00:30:40;2.36;92.89
68609;SHT31;55581;46.718;7.690;2024-03-06T00:33:06;2.29;93.14
68609;SHT31;55581;46.718;7.690;2024-03-06T00:35:32;2.34;92.88
68609;SHT31;55581;46.718;7.690;2024-03-06T00:38:00;2.37;92.60
68609;SHT31;55581;46.718;7.690;2024-03-06T00:40:30;2.44;92.55
68609;SHT31;55581;46.718;7.690;2024-03-06T00:43:01;2.40;91.69
68609;SHT31;55581;46.718;7.690;2024-03-06T00:45:26;2.49;92.80
68609;SHT31;55581;46.718;7.690;2024-03-06T00:47:51;2.47;91.17
68609;SHT31;55581;46.718;7.690;2024-03-06T00:50:17;2.47;92.63
68609;SHT31;55581;46.718;7.690;2024-03-06T00:52:43;2.56;92.40
68609;SHT31;55581;46.718;7.690;2024-03-06T00:55:09;2.49;90.85
68609;SHT31;55581;46.718;7.690;2024-03-06T00:57:35;2.58;92.34
68609;SHT31;55581;46.718;7.690;2024-03-06T01:00:01;2.57;91.21
68609;SHT31;55581;46.718;7.690;2024-03-06T01:02:31;2.54;91.03
68609;SHT31;55581;46.718;7.690;2024-03-06T01:04:56;2.41;92.03
68609;SHT31;55581;46.718;7.690;2024-03-06T01:07:21;2.41;92.18
68609;SHT31;55581;46.718;7.690;2024-03-06T01:09:47;2.44;91.94
68609;SHT31;55581;46.718;7.690;2024-03-06T01:12:14;2.44;91.39
68609;SHT31;55581;46.718;7.690;2024-03-06T01:14:41;2.51;92.96
68609;SHT31;55581;46.718;7.690;2024-03-06T01:17:07;2.51;92.28
68609;SHT31;55581;46.718;7.690;2024-03-06T01:19:33;2.51;92.64
68609;SHT31;55581;46.718;7.690;2024-03-06T01:22:02;2.57;91.29
68609;SHT31;55581;46.718;7.690;2024-03-06T01:24:27;2.53;91.20
68609;SHT31;55581;46.718;7.690;2024-03-06T01:26:52;2.54;91.04
68609;SHT31;55581;46.718;7.690;2024-03-06T01:29:18;2.56;92.02
68609;SHT31;55581;46.718;7.690;2024-03-06T01:31:43;2.54;92.29
68609;SHT31;55581;46.718;7.690;2024-03-06T01:34:11;2.54;93.01
68609;SHT31;55581;46.718;7.690;2024-03-06T01:36:37;2.60;92.25
68609;SHT31;55581;46.718;7.690;2024-03-06T01:39:02;2.56;92.32
68609;SHT31;55581;46.718;7.690;2024-03-06T01:41:28;2.62;92.59
68609;SHT31;55581;46.718;7.690;2024-03-06T01:43:53;2.60;92.18
68609;SHT31;55581;46.718;7.690;2024-03-06T01:46:19;2.61;93.00
68609;SHT31;55581;46.718;7.690;2024-03-06T01:48:44;2.67;92.47
68609;SHT31;55581;46.718;7.690;2024-03-06T01:51:10;2.71;91.67
68609;SHT31;55581;46.718;7.690;2024-03-06T01:53:36;2.68;91.91
68609;SHT31;55581;46.718;7.690;2024-03-06T01:56:03;2.74;91.68
68609;SHT31;55581;46.718;7.690;2024-03-06T01:58:29;2.75;92.50
68609;SHT31;55581;46.718;7.690;2024-03-06T02:00:56;2.62;91.85
68609;SHT31;55581;46.718;7.690;2024-03-06T02:03:22;2.64;91.58
68609;SHT31;55581;46.718;7.690;2024-03-06T02:05:52;2.58;91.99
68609;SHT31;55581;46.718;7.690;2024-03-06T02:08:18;2.60;93.08
68609;SHT31;55581;46.718;7.690;2024-03-06T02:10:44;2.64;92.90
68609;SHT31;55581;46.718;7.690;2024-03-06T02:13:11;2.62;91.97
68609;SHT31;55581;46.718;7.690;2024-03-06T02:15:40;2.50;91.21
68609;SHT31;55581;46.718;7.690;2024-03-06T02:18:06;2.53;92.17
68609;SHT31;55581;46.718;7.690;2024-03-06T02:20:32;2.50;92.21
68609;SHT31;55581;46.718;7.690;2024-03-06T02:22:59;2.47;91.47
68609;SHT31;55581;46.718;7.690;2024-03-06T02:25:25;2.43;92.71
68609;SHT31;55581;46.718;7.690;2024-03-06T02:27:53;2.37;92.53
68609;SHT31;55581;46.718;7.690;2024-03-06T02:30:21;2.29;92.36
68609;SHT31;55581;46.718;7.690;2024-03-06T02:32:47;2.26;92.79
68609;SHT31;55581;46.718;7.690;2024-03-06T02:35:12;2.20;93.83
68609;SHT31;55581;46.718;7.690;2024-03-06T02:37:42;2.25;94.20
68609;SHT31;55581;46.718;7.690;2024-03-06T02:40:09;2.29;93.95
68609;SHT31;55581;46.718;7.690;2024-03-06T02:42:35;2.33;93.78
68609;SHT31;55581;46.718;7.690;2024-03-06T02:45:05;2.41;94.02
68609;SHT31;55581;46.718;7.690;2024-03-06T02:47:30;2.43;93.33
68609;SHT31;55581;46.718;7.690;2024-03-06T02:49:56;2.51;92.13
68609;SHT31;55581;46.718;7.690;2024-03-06T02:52:21;2.49;92.37
68609;SHT31;55581;46.718;7.690;2024-03-06T02:54:47;2.47;92.78
68609;SHT31;55581;46.718;7.690;2024-03-06T02:57:13;2.37;92.00
68609;SHT31;55581;46.718;7.690;2024-03-06T02:59:40;2.39;93.04
68609;SHT31;55581;46.718;7.690;2024-03-06T03:02:08;2.30;92.97
68609;SHT31;55581;46.718;7.690;2024-03-06T03:04:38;2.34;92.39
68609;SHT31;55581;46.718;7.690;2024-03-06T03:07:04;2.30;93.07
68609;SHT31;55581;46.718;7.690;2024-03-06T03:09:30;2.26;93.00
68609;SHT31;55581;46.718;7.690;2024-03-06T03:11:56;2.26;93.72
68609;SHT31;55581;46.718;7.690;2024-03-06T03:14:22;2.33;94.72
68609;SHT31;55581;46.718;7.690;2024-03-06T03:16:47;2.43;94.95
68609;SHT31;55581;46.718;7.690;2024-03-06T03:19:16;2.44;94.43
68609;SHT31;55581;46.718;7.690;2024-03-06T03:21:44;2.47;92.81
68609;SHT31;55581;46.718;7.690;2024-03-06T03:24:09;2.43;93.42
68609;SHT31;55581;46.718;7.690;2024-03-06T03:26:35;2.47;94.02
68609;SHT31;55581;46.718;7.690;2024-03-06T03:29:01;2.47;93.26
68609;SHT31;55581;46.718;7.690;2024-03-06T03:31:29;2.51;94.30
68609;SHT31;55581;46.718;7.690;2024-03-06T03:33:54;2.60;93.83
68609;SHT31;55581;46.718;7.690;2024-03-06T03:36:20;2.61;93.40
68609;SHT31;55581;46.718;7.690;2024-03-06T03:38:45;2.62;92.37
68609;SHT31;55581;46.718;7.690;2024-03-06T03:41:12;2.54;91.58
68609;SHT31;55581;46.718;7.690;2024-03-06T03:43:41;2.44;92.11
68609;SHT31;55581;46.718;7.690;2024-03-06T03:46:06;2.41;92.69
68609;SHT31;55581;46.718;7.690;2024-03-06T03:48:32;2.41;92.79
68609;SHT31;55581;46.718;7.690;2024-03-06T03:51:01;2.29;93.20
68609;SHT31;55581;46.718;7.690;2024-03-06T03:53:28;2.22;93.02
68609;SHT31;55581;46.718;7.690;2024-03-06T03:55:56;2.20;92.94
68609;SHT31;55581;46.718;7.690;2024-03-06T03:58:21;2.15;93.32
68609;SHT31;55581;46.718;7.690;2024-03-06T04:00:47;2.03;93.30
68609;SHT31;55581;46.718;7.690;2024-03-06T04:03:15;2.03;93.63
68609;SHT31;55581;46.718;7.690;2024-03-06T04:05:40;2.01;94.08
68609;SHT31;55581;46.718;7.690;2024-03-06T04:08:06;2.03;94.78
68609;SHT31;55581;46.718;7.690;2024-03-06T04:10:31;2.12;94.31
68609;SHT31;55581;46.718;7.690;2024-03-06T04:12:59;2.05;93.51
68609;SHT31;55581;46.718;7.690;2024-03-06T04:15:25;2.02;93.61
68609;SHT31;55581;46.718;7.690;2024-03-06T04:17:53;1.99;94.02
68609;SHT31;55581;46.718;7.690;2024-03-06T04:20:18;1.97;93.71
68609;SHT31;55581;46.718;7.690;2024-03-06T04:22:44;1.95;94.24
68609;SHT31;55581;46.718;7.690;2024-03-06T04:25:11;1.95;93.58
68609;SHT31;55581;46.718;7.690;2024-03-06T04:27:37;1.95;94.22
68609;SHT31;55581;46.718;7.690;2024-03-06T04:30:03;1.91;94.42
68609;SHT31;55581;46.718;7.690;2024-03-06T04:32:29;1.89;94.24
68609;SHT31;55581;46.718;7.690;2024-03-06T04:34:54;1.86;93.63
68609;SHT31;55581;46.718;7.690;2024-03-06T04:37:21;1.84;94.37
68609;SHT31;55581;46.718;7.690;2024-03-06T04:39:46;1.79;94.28
68609;SHT31;55581;46.718;7.690;2024-03-06T04:42:12;1.85;95.02
68609;SHT31;55581;46.718;7.690;2024-03-06T04:44:40;1.95;95.22
68609;SHT31;55581;46.718;7.690;2024-03-06T04:47:07;1.99;95.11
68609;SHT31;55581;46.718;7.690;2024-03-06T04:49:33;2.06;94.88
68609;SHT31;55581;46.718;7.690;2024-03-06T04:51:59;2.16;94.43
68609;SHT31;55581;46.718;7.690;2024-03-06T04:54:25;2.20;93.82
68609;SHT31;55581;46.718;7.690;2024-03-06T04:56:51;2.22;93.65
68609;SHT31;55581;46.718;7.690;2024-03-06T04:59:16;2.23;93.54
68609;SHT31;55581;46.718;7.690;2024-03-06T05:01:42;2.16;93.00
68609;SHT31;55581;46.718;7.690;2024-03-06T05:04:08;2.15;92.92
68609;SHT31;55581;46.718;7.690;2024-03-06T05:06:34;2.12;92.52
68609;SHT31;55581;46.718;7.690;2024-03-06T05:09:00;2.18;94.03
68609;SHT31;55581;46.718;7.690;2024-03-06T05:11:26;2.16;93.09
68609;SHT31;55581;46.718;7.690;2024-03-06T05:13:51;2.18;92.80
68609;SHT31;55581;46.718;7.690;2024-03-06T05:16:16;2.16;93.98
68609;SHT31;55581;46.718;7.690;2024-03-06T05:18:42;2.20;94.18
68609;SHT31;55581;46.718;7.690;2024-03-06T05:21:12;2.19;93.06
68609;SHT31;55581;46.718;7.690;2024-03-06T05:23:38;2.22;92.53
68609;SHT31;55581;46.718;7.690;2024-03-06T05:26:03;2.29;93.50
68609;SHT31;55581;46.718;7.690;2024-03-06T05:28:31;2.29;92.44
68609;SHT31;55581;46.718;7.690;2024-03-06T05:30:56;2.22;92.42
68609;SHT31;55581;46.718;7.690;2024-03-06T05:33:22;2.22;92.89
68609;SHT31;55581;46.718;7.690;2024-03-06T05:35:47;2.19;92.54
68609;SHT31;55581;46.718;7.690;2024-03-06T05:38:12;2.15;93.38
68609;SHT31;55581;46.718;7.690;2024-03-06T05:40:40;2.12;93.32
68609;SHT31;55581;46.718;7.690;2024-03-06T05:43:09;2.18;93.38
68609;SHT31;55581;46.718;7.690;2024-03-06T05:45:35;2.18;92.96
68609;SHT31;55581;46.718;7.690;2024-03-06T05:48:00;2.08;93.45
68609;SHT31;55581;46.718;7.690;2024-03-06T05:50:26;2.12;93.61
68609;SHT31;55581;46.718;7.690;2024-03-06T05:52:51;2.18;92.76
68609;SHT31;55581;46.718;7.690;2024-03-06T05:55:16;2.11;93.00
68609;SHT31;55581;46.718;7.690;2024-03-06T05:57:42;2.06;93.67
68609;SHT31;55581;46.718;7.690;2024-03-06T06:00:14;2.11;93.57
68609;SHT31;55581;46.718;7.690;2024-03-06T06:02:40;2.05;92.44
68609;SHT31;55581;46.718;7.690;2024-03-06T06:05:06;2.08;93.13
68609;SHT31;55581;46.718;7.690;2024-03-06T06:07:32;2.06;93.30
68609;SHT31;55581;46.718;7.690;2024-03-06T06:10:00;2.06;92.79
68609;SHT31;55581;46.718;7.690;2024-03-06T06:12:25;2.06;93.08
68609;SHT31;55581;46.718;7.690;2024-03-06T06:14:51;2.11;93.75
68609;SHT31;55581;46.718;7.690;2024-03-06T06:17:18;2.13;93.54
68609;SHT31;55581;46.718;7.690;2024-03-06T06:19:43;2.23;93.97
68609;SHT31;55581;46.718;7.690;2024-03-06T06:22:09;2.19;91.57
68609;SHT31;55581;46.718;7.690;2024-03-06T06:24:36;2.26;93.24
68609;SHT31;55581;46.718;7.690;2024-03-06T06:27:02;2.29;93.85
68609;SHT31;55581;46.718;7.690;2024-03-06T06:29:27;2.32;93.49
68609;SHT31;55581;46.718;7.690;2024-03-06T06:31:54;2.36;93.10
68609;SHT31;55581;46.718;7.690;2024-03-06T06:34:19;2.32;92.92
68609;SHT31;55581;46.718;7.690;2024-03-06T06:36:46;2.30;92.64
68609;SHT31;55581;46.718;7.690;2024-03-06T06:39:12;2.30;92.26
68609;SHT31;55581;46.718;7.690;2024-03-06T06:41:37;2.37;93.63
68609;SHT31;55581;46.718;7.690;2024-03-06T06:44:03;2.34;92.49
68609;SHT31;55581;46.718;7.690;2024-03-06T06:46:28;2.40;93.40
68609;SHT31;55581;46.718;7.690;2024-03-06T06:48:54;2.39;93.79
68609;SHT31;55581;46.718;7.690;2024-03-06T06:51:19;2.32;92.42
68609;SHT31;55581;46.718;7.690;2024-03-06T06:53:46;2.32;93.08
68609;SHT31;55581;46.718;7.690;2024-03-06T06:56:11;2.33;93.15
68609;SHT31;55581;46.718;7.690;2024-03-06T06:58:37;2.19;92.30
68609;SHT31;55581;46.718;7.690;2024-03-06T07:01:02;2.11;92.67
68609;SHT31;55581;46.718;7.690;2024-03-06T07:03:30;2.06;93.06
68609;SHT31;55581;46.718;7.690;2024-03-06T07:06:02;2.11;93.71
68609;SHT31;55581;46.718;7.690;2024-03-06T07:08:34;2.03;92.70
68609;SHT31;55581;46.718;7.690;2024-03-06T07:11:00;2.06;93.76
68609;SHT31;55581;46.718;7.690;2024-03-06T07:13:28;2.03;93.11
68609;SHT31;55581;46.718;7.690;2024-03-06T07:15:58;2.06;93.14
68609;SHT31;55581;46.718;7.690;2024-03-06T07:18:26;1.97;93.30
68609;SHT31;55581;46.718;7.690;2024-03-06T07:20:54;1.95;93.30
68609;SHT31;55581;46.718;7.690;2024-03-06T07:23:19;1.89;93.44
68609;SHT31;55581;46.718;7.690;2024-03-06T07:25:45;1.82;94.12
68609;SHT31;55581;46.718;7.690;2024-03-06T07:28:11;1.88;94.68
68609;SHT31;55581;46.718;7.690;2024-03-06T07:30:38;1.86;94.34
68609;SHT31;55581;46.718;7.690;2024-03-06T07:33:04;1.94;94.50
68609;SHT31;55581;46.718;7.690;2024-03-06T07:35:31;1.98;94.43
68609;SHT31;55581;46.718;7.690;2024-03-06T07:38:00;2.06;94.56
68609;SHT31;55581;46.718;7.690;2024-03-06T07:40:25;2.13;94.72
68609;SHT31;55581;46.718;7.690;2024-03-06T07:42:51;2.16;94.50
68609;SHT31;55581;46.718;7.690;2024-03-06T07:45:16;2.26;95.24
68609;SHT31;55581;46.718;7.690;2024-03-06T07:47:41;2.30;94.41
68609;SHT31;55581;46.718;7.690;2024-03-06T07:50:08;2.39;94.34
68609;SHT31;55581;46.718;7.690;2024-03-06T07:52:33;2.51;93.95
68609;SHT31;55581;46.718;7.690;2024-03-06T07:55:01;2.54;93.21
68609;SHT31;55581;46.718;7.690;2024-03-06T07:57:27;2.67;94.16
68609;SHT31;55581;46.718;7.690;2024-03-06T07:59:52;2.67;93.52
68609;SHT31;55581;46.718;7.690;2024-03-06T08:02:20;2.70;93.08
68609;SHT31;55581;46.718;7.690;2024-03-06T08:04:48;2.71;92.41
68609;SHT31;55581;46.718;7.690;2024-03-06T08:07:13;2.81;92.53
68609;SHT31;55581;46.718;7.690;2024-03-06T08:09:39;2.71;93.14
68609;SHT31;55581;46.718;7.690;2024-03-06T08:12:04;2.74;93.11
68609;SHT31;55581;46.718;7.690;2024-03-06T08:14:30;2.68;93.43
68609;SHT31;55581;46.718;7.690;2024-03-06T08:16:55;2.78;94.28
68609;SHT31;55581;46.718;7.690;2024-03-06T08:19:21;2.85;93.73
68609;SHT31;55581;46.718;7.690;2024-03-06T08:21:46;2.91;93.37
68609;SHT31;55581;46.718;7.690;2024-03-06T08:24:12;2.87;93.56
68609;SHT31;55581;46.718;7.690;2024-03-06T08:26:37;2.99;93.21
68609;SHT31;55581;46.718;7.690;2024-03-06T08:29:03;3.09;92.89
68609;SHT31;55581;46.718;7.690;2024-03-06T08:31:29;3.15;92.21
68609;SHT31;55581;46.718;7.690;2024-03-06T08:33:55;3.19;91.86
68609;SHT31;55581;46.718;7.690;2024-03-06T08:36:21;3.24;91.43
68609;SHT31;55581;46.718;7.690;2024-03-06T08:38:46;3.22;91.87
68609;SHT31;55581;46.718;7.690;2024-03-06T08:41:14;3.29;90.70
68609;SHT31;55581;46.718;7.690;2024-03-06T08:43:39;3.27;90.62
68609;SHT31;55581;46.718;7.690;2024-03-06T08:46:05;3.32;91.11
68609;SHT31;55581;46.718;7.690;2024-03-06T08:48:30;3.33;91.37
68609;SHT31;55581;46.718;7.690;2024-03-06T08:50:56;3.37;91.23
68609;SHT31;55581;46.718;7.690;2024-03-06T08:53:21;3.37;91.25
68609;SHT31;55581;46.718;7.690;2024-03-06T08:55:47;3.37;90.83
68609;SHT31;55581;46.718;7.690;2024-03-06T08:58:12;3.40;90.75
68609;SHT31;55581;46.718;7.690;2024-03-06T09:00:39;3.47;90.99
68609;SHT31;55581;46.718;7.690;2024-03-06T09:03:07;3.47;90.89
68609;SHT31;55581;46.718;7.690;2024-03-06T09:05:34;3.51;90.54
68609;SHT31;55581;46.718;7.690;2024-03-06T09:08:00;3.57;90.21
68609;SHT31;55581;46.718;7.690;2024-03-06T09:10:28;3.59;89.67
68609;SHT31;55581;46.718;7.690;2024-03-06T09:12:53;3.64;89.37
68609;SHT31;55581;46.718;7.690;2024-03-06T09:15:18;3.84;89.84
68609;SHT31;55581;46.718;7.690;2024-03-06T09:17:44;3.82;90.26
68609;SHT31;55581;46.718;7.690;2024-03-06T09:20:10;3.89;91.11
68609;SHT31;55581;46.718;7.690;2024-03-06T09:22:40;3.94;90.88
68609;SHT31;55581;46.718;7.690;2024-03-06T09:25:06;3.94;90.38
68609;SHT31;55581;46.718;7.690;2024-03-06T09:27:35;3.98;90.47
68609;SHT31;55581;46.718;7.690;2024-03-06T09:30:01;3.99;89.33
68609;SHT31;55581;46.718;7.690;2024-03-06T09:32:28;3.97;89.87
68609;SHT31;55581;46.718;7.690;2024-03-06T09:34:53;3.99;89.88
68609;SHT31;55581;46.718;7.690;2024-03-06T09:37:19;4.05;90.43
68609;SHT31;55581;46.718;7.690;2024-03-06T09:39:45;4.08;89.91
68609;SHT31;55581;46.718;7.690;2024-03-06T09:42:14;4.15;90.37
68609;SHT31;55581;46.718;7.690;2024-03-06T09:44:40;4.23;90.13
68609;SHT31;55581;46.718;7.690;2024-03-06T09:47:06;4.29;88.80
68609;SHT31;55581;46.718;7.690;2024-03-06T09:49:32;4.34;90.01
68609;SHT31;55581;46.718;7.690;2024-03-06T09:52:02;4.34;90.03
68609;SHT31;55581;46.718;7.690;2024-03-06T09:54:29;4.53;89.81
68609;SHT31;55581;46.718;7.690;2024-03-06T09:56:55;4.58;89.15
68609;SHT31;55581;46.718;7.690;2024-03-06T09:59:22;4.61;89.00
68609;SHT31;55581;46.718;7.690;2024-03-06T10:01:58;4.72;89.18
68609;SHT31;55581;46.718;7.690;2024-03-06T10:04:24;4.74;88.93
68609;SHT31;55581;46.718;7.690;2024-03-06T10:06:50;4.87;88.99
68609;SHT31;55581;46.718;7.690;2024-03-06T10:09:20;4.77;87.75
68609;SHT31;55581;46.718;7.690;2024-03-06T10:11:46;4.71;87.87
68609;SHT31;55581;46.718;7.690;2024-03-06T10:14:12;4.77;88.92
68609;SHT31;55581;46.718;7.690;2024-03-06T10:16:57;4.74;88.09
68609;SHT31;55581;46.718;7.690;2024-03-06T10:19:24;4.75;87.83
68609;SHT31;55581;46.718;7.690;2024-03-06T10:21:53;4.84;88.69
68609;SHT31;55581;46.718;7.690;2024-03-06T10:24:23;5.05;88.39
68609;SHT31;55581;46.718;7.690;2024-03-06T10:26:50;5.30;85.81
68609;SHT31;55581;46.718;7.690;2024-03-06T10:29:17;5.23;84.19
68609;SHT31;55581;46.718;7.690;2024-03-06T10:31:53;5.27;85.61
68609;SHT31;55581;46.718;7.690;2024-03-06T10:34:23;5.33;86.80
68609;SHT31;55581;46.718;7.690;2024-03-06T10:37:01;5.27;86.50
68609;SHT31;55581;46.718;7.690;2024-03-06T10:39:30;5.30;86.47
68609;SHT31;55581;46.718;7.690;2024-03-06T10:41:56;5.35;87.74
68609;SHT31;55581;46.718;7.690;2024-03-06T10:44:24;5.60;85.85
68609;SHT31;55581;46.718;7.690;2024-03-06T10:47:01;5.48;87.90
68609;SHT31;55581;46.718;7.690;2024-03-06T10:49:31;5.53;86.97
68609;SHT31;55581;46.718;7.690;2024-03-06T10:52:01;5.63;86.19
68609;SHT31;55581;46.718;7.690;2024-03-06T10:54:28;5.63;86.86
68609;SHT31;55581;46.718;7.690;2024-03-06T10:56:55;5.73;85.83
68609;SHT31;55581;46.718;7.690;2024-03-06T10:59:24;5.74;87.58
68609;SHT31;55581;46.718;7.690;2024-03-06T11:01:53;5.85;84.77
68609;SHT31;55581;46.718;7.690;2024-03-06T11:04:20;5.79;84.05
68609;SHT31;55581;46.718;7.690;2024-03-06T11:06:45;5.82;84.51
68609;SHT31;55581;46.718;7.690;2024-03-06T11:09:11;5.84;84.24
68609;SHT31;55581;46.718;7.690;2024-03-06T11:11:51;5.81;84.07
68609;SHT31;55581;46.718;7.690;2024-03-06T11:14:18;5.94;85.36
68609;SHT31;55581;46.718;7.690;2024-03-06T11:17:00;5.98;86.70
68609;SHT31;55581;46.718;7.690;2024-03-06T11:19:26;6.12;86.31
68609;SHT31;55581;46.718;7.690;2024-03-06T11:21:51;6.34;83.69
68609;SHT31;55581;46.718;7.690;2024-03-06T11:24:22;6.28;84.56
68609;SHT31;55581;46.718;7.690;2024-03-06T11:26:56;6.16;84.08
68609;SHT31;55581;46.718;7.690;2024-03-06T11:29:27;6.41;82.00
68609;SHT31;55581;46.718;7.690;2024-03-06T11:32:00;6.44;83.55
68609;SHT31;55581;46.718;7.690;2024-03-06T11:34:29;6.29;85.44
68609;SHT31;55581;46.718;7.690;2024-03-06T11:37:03;6.11;85.69
68609;SHT31;55581;46.718;7.690;2024-03-06T11:39:33;6.26;84.80
68609;SHT31;55581;46.718;7.690;2024-03-06T11:41:59;6.22;83.43
68609;SHT31;55581;46.718;7.690;2024-03-06T11:44:27;6.32;86.64
68609;SHT31;55581;46.718;7.690;2024-03-06T11:51:55;6.50;82.96
68609;SHT31;55581;46.718;7.690;2024-03-06T11:54:21;6.54;83.79
68609;SHT31;55581;46.718;7.690;2024-03-06T11:56:52;6.39;84.00
68609;SHT31;55581;46.718;7.690;2024-03-06T11:59:31;6.40;83.20
68609;SHT31;55581;46.718;7.690;2024-03-06T12:02:02;6.40;84.37
68609;SHT31;55581;46.718;7.690;2024-03-06T12:04:28;6.53;84.89
68609;SHT31;55581;46.718;7.690;2024-03-06T12:06:57;6.53;82.87
68609;SHT31;55581;46.718;7.690;2024-03-06T12:09:25;6.49;83.81
68609;SHT31;55581;46.718;7.690;2024-03-06T12:11:50;6.50;83.50
68609;SHT31;55581;46.718;7.690;2024-03-06T12:14:19;6.78;84.55
68609;SHT31;55581;46.718;7.690;2024-03-06T12:17:14;6.73;83.94
68609;SHT31;55581;46.718;7.690;2024-03-06T12:19:42;6.89;85.43
68609;SHT31;55581;46.718;7.690;2024-03-06T12:22:10;7.05;83.40
68609;SHT31;55581;46.718;7.690;2024-03-06T12:24:36;6.89;81.41
68609;SHT31;55581;46.718;7.690;2024-03-06T12:27:03;7.13;82.18
68609;SHT31;55581;46.718;7.690;2024-03-06T12:29:32;7.09;81.44
68609;SHT31;55581;46.718;7.690;2024-03-06T12:32:01;6.98;82.40
68609;SHT31;55581;46.718;7.690;2024-03-06T12:34:27;7.16;83.09
68609;SHT31;55581;46.718;7.690;2024-03-06T12:36:52;6.94;81.78
68609;SHT31;55581;46.718;7.690;2024-03-06T12:39:18;6.98;83.48
68609;SHT31;55581;46.718;7.690;2024-03-06T12:41:50;6.99;82.68
68609;SHT31;55581;46.718;7.690;2024-03-06T12:44:19;6.94;81.71
68609;SHT31;55581;46.718;7.690;2024-03-06T12:46:44;6.87;81.96
68609;SHT31;55581;46.718;7.690;2024-03-06T12:49:10;6.71;82.33
68609;SHT31;55581;46.718;7.690;2024-03-06T12:51:35;7.01;81.99
68609;SHT31;55581;46.718;7.690;2024-03-06T12:54:01;6.84;82.24
68609;SHT31;55581;46.718;7.690;2024-03-06T12:56:29;6.73;81.42
68609;SHT31;55581;46.718;7.690;2024-03-06T12:58:54;6.75;81.63
68609;SHT31;55581;46.718;7.690;2024-03-06T13:01:22;6.64;81.94
68609;SHT31;55581;46.718;7.690;2024-03-06T13:03:47;6.67;83.25
68609;SHT31;55581;46.718;7.690;2024-03-06T13:06:16;6.66;81.66
68609;SHT31;55581;46.718;7.690;2024-03-06T13:08:42;6.77;82.40
68609;SHT31;55581;46.718;7.690;2024-03-06T13:11:07;6.87;82.91
68609;SHT31;55581;46.718;7.690;2024-03-06T13:13:34;6.95;79.75
68609;SHT31;55581;46.718;7.690;2024-03-06T13:16:03;6.92;81.43
68609;SHT31;55581;46.718;7.690;2024-03-06T13:18:28;7.18;80.10
68609;SHT31;55581;46.718;7.690;2024-03-06T13:20:53;7.20;81.52
68609;SHT31;55581;46.718;7.690;2024-03-06T13:23:19;7.22;80.26
68609;SHT31;55581;46.718;7.690;2024-03-06T13:25:45;7.27;78.55
68609;SHT31;55581;46.718;7.690;2024-03-06T13:28:11;7.19;78.39
68609;SHT31;55581;46.718;7.690;2024-03-06T13:30:37;7.09;77.06
68609;SHT31;55581;46.718;7.690;2024-03-06T13:33:04;7.12;79.33
68609;SHT31;55581;46.718;7.690;2024-03-06T13:35:30;7.33;79.89
68609;SHT31;55581;46.718;7.690;2024-03-06T13:37:55;7.19;78.98
68609;SHT31;55581;46.718;7.690;2024-03-06T13:40:21;7.30;79.45
68609;SHT31;55581;46.718;7.690;2024-03-06T13:42:46;7.13;79.94
68609;SHT31;55581;46.718;7.690;2024-03-06T13:45:12;7.18;80.47
68609;SHT31;55581;46.718;7.690;2024-03-06T13:47:38;7.09;79.30
68609;SHT31;55581;46.718;7.690;2024-03-06T13:50:25;7.13;81.20
68609;SHT31;55581;46.718;7.690;2024-03-06T13:52:56;7.23;79.68
68609;SHT31;55581;46.718;7.690;2024-03-06T13:55:22;7.30;80.18
68609;SHT31;55581;46.718;7.690;2024-03-06T13:57:51;7.30;79.61
68609;SHT31;55581;46.718;7.690;2024-03-06T14:00:17;7.20;80.45
68609;SHT31;55581;46.718;7.690;2024-03-06T14:02:45;7.20;79.00
68609;SHT31;55581;46.718;7.690;2024-03-06T14:05:11;7.18;79.74
68609;SHT31;55581;46.718;7.690;2024-03-06T14:07:39;7.09;79.89
68609;SHT31;55581;46.718;7.690;2024-03-06T14:10:06;7.20;80.90
68609;SHT31;55581;46.718;7.690;2024-03-06T14:12:33;6.95;75.14
68609;SHT31;55581;46.718;7.690;2024-03-06T14:15:00;7.05;78.86
68609;SHT31;55581;46.718;7.690;2024-03-06T14:17:25;6.99;77.27
68609;SHT31;55581;46.718;7.690;2024-03-06T14:19:51;6.92;77.15
68609;SHT31;55581;46.718;7.690;2024-03-06T14:22:18;6.85;77.01
68609;SHT31;55581;46.718;7.690;2024-03-06T14:24:46;6.74;77.48
68609;SHT31;55581;46.718;7.690;2024-03-06T14:27:12;6.67;77.42
68609;SHT31;55581;46.718;7.690;2024-03-06T14:29:37;6.66;78.22
68609;SHT31;55581;46.718;7.690;2024-03-06T14:32:03;6.51;76.66
68609;SHT31;55581;46.718;7.690;2024-03-06T14:34:28;6.37;77.23
68609;SHT31;55581;46.718;7.690;2024-03-06T14:36:54;6.34;77.99
68609;SHT31;55581;46.718;7.690;2024-03-06T14:39:20;6.41;78.21
68609;SHT31;55581;46.718;7.690;2024-03-06T14:41:48;6.34;78.98
68609;SHT31;55581;46.718;7.690;2024-03-06T14:44:16;6.30;79.29
68609;SHT31;55581;46.718;7.690;2024-03-06T14:46:41;6.36;79.98
68609;SHT31;55581;46.718;7.690;2024-03-06T14:49:07;6.39;78.06
68609;SHT31;55581;46.718;7.690;2024-03-06T14:51:33;6.33;79.33
68609;SHT31;55581;46.718;7.690;2024-03-06T14:53:59;6.32;78.52
68609;SHT31;55581;46.718;7.690;2024-03-06T14:56:24;6.33;80.15
68609;SHT31;55581;46.718;7.690;2024-03-06T14:58:50;6.41;81.40
68609;SHT31;55581;46.718;7.690;2024-03-06T15:01:17;6.40;80.51
68609;SHT31;55581;46.718;7.690;2024-03-06T15:03:42;6.32;81.14
68609;SHT31;55581;46.718;7.690;2024-03-06T15:06:08;6.26;80.68
68609;SHT31;55581;46.718;7.690;2024-03-06T15:08:34;6.30;81.22
68609;SHT31;55581;46.718;7.690;2024-03-06T15:11:02;6.28;82.13
68609;SHT31;55581;46.718;7.690;2024-03-06T15:13:28;6.12;81.49
68609;SHT31;55581;46.718;7.690;2024-03-06T15:15:53;6.19;82.84
68609;SHT31;55581;46.718;7.690;2024-03-06T15:18:19;6.03;81.80
68609;SHT31;55581;46.718;7.690;2024-03-06T15:20:44;6.01;81.43
68609;SHT31;55581;46.718;7.690;2024-03-06T15:23:10;5.99;82.71
68609;SHT31;55581;46.718;7.690;2024-03-06T15:25:36;6.03;82.11
68609;SHT31;55581;46.718;7.690;2024-03-06T15:28:02;5.91;81.22
68609;SHT31;55581;46.718;7.690;2024-03-06T15:30:27;5.82;83.97
68609;SHT31;55581;46.718;7.690;2024-03-06T15:32:54;5.82;83.13
68609;SHT31;55581;46.718;7.690;2024-03-06T15:35:19;5.91;84.48
68609;SHT31;55581;46.718;7.690;2024-03-06T15:37:45;6.01;84.36
68609;SHT31;55581;46.718;7.690;2024-03-06T15:40:10;5.94;83.82
68609;SHT31;55581;46.718;7.690;2024-03-06T15:42:36;5.92;84.33
68609;SHT31;55581;46.718;7.690;2024-03-06T15:45:02;5.98;84.37
68609;SHT31;55581;46.718;7.690;2024-03-06T15:47:27;6.11;84.19